Nearby METAR Reports

 

YSCB - Canberra (civ/Mi, Australia
Distance from station: NNE 21km
Updated: 15/11/2018 07:00
Clear
Clear
 Wind from S
Wind: S 9 km/h
Temperature: 15°C
Dew Point: 15°C
Humidity: 100%
Barometer: 1018 hPa
Clouds: Clear
Visibility: 4 km
2018/11/14 20:00 YSCB 142000Z AUTO 19005KT 4000 // NCD 15/15 Q1018
YCOM - Cooma Snowy Mtns, Australia
Distance from station: S 94km
Updated: 15/11/2018 07:11
Overcast
Overcast
 Wind from S
Wind: S 17 km/h
Temperature: 11°C
Dew Point: 11°C
Humidity: 100%
Barometer: 1019 hPa
Clouds: Overcast
Visibility: 10 km
Cloud details: Mostly cloudy 152 m
Overcast 244 m
2018/11/14 20:11 YCOM 142011Z AUTO 18009KT 9999 // BKN005 OVC008 11/11 Q1019
 
YSNW - Nowra (aus-Navy), Australia
Distance from station: ENE 140km
Updated: 15/11/2018 07:03
Mostly cloudy
Mostly cloudy
 Wind from S
Wind: S 11 km/h
Temperature: 18°C
Dew Point: 17°C
Humidity: 94%
Barometer: 1017 hPa
Clouds: Mostly cloudy
Visibility: 10 km
Cloud details: Mostly cloudy 366 m
Mostly cloudy 671 m
2018/11/14 20:03 YSNW 142003Z 18006KT 9999 BKN012 BKN022 18/17 Q1017 TEMPO 2003/2303 4000 SHRA BKN008
YSWG - Wagga Wagga(Cv/M, Australia
Distance from station: WNW 153km
Updated: 15/11/2018 07:00
Clear
Clear
 Wind from N
Wind: N 9 km/h
Temperature: 16°C
Dew Point: 16°C
Humidity: 100%
Barometer: 1017 hPa
Clouds: Clear
Visibility: 9 km
2018/11/14 20:00 YSWG 142000Z AUTO 36005KT 9000 // NCD 16/16 Q1017
 
YMER - Merimbula Arpt, Australia
Distance from station: SSE 177km
Updated: 15/11/2018 07:00
Overcast
Overcast
 Wind from S
Wind: S 6 km/h
Temperature: 15°C
Dew Point: 13°C
Humidity: 88%
Barometer: 1018 hPa
Clouds: Overcast
Visibility: 10 km
Cloud details: Overcast 1372 m
2018/11/14 20:00 YMER 142000Z AUTO 18003KT 9999 // OVC045 15/13 Q1018
YMAY - Albury Airport, Australia
Distance from station: WSW 207km
Updated: 15/11/2018 07:13
Partly cloudy
Partly cloudy
 Wind from SSW
Wind: SSW 9 km/h
Temperature: 15°C
Dew Point: 14°C
Humidity: 94%
Barometer: 1017 hPa
Clouds: Partly cloudy
Visibility: 10 km
Cloud details: Partly cloudy 244 m
2018/11/14 20:13 YMAY 142013Z AUTO 21005KT 9999 // SCT008 15/14 Q1017
 
YNAR - Narrandera, Australia
Distance from station: WNW 250km
Updated: 15/11/2018 06:00

 Wind from W
Wind: W 6 km/h
Temperature: 14°C
Dew Point: 12°C
Humidity: 88%
Barometer: 1017 hPa
2018/11/14 19:00 YNAR 141900Z AUTO 26003KT //// // ////// 14/12 Q1017
YSSY - Sydney Intl Airp, Australia
Distance from station: NE 253km
Updated: 15/11/2018 07:00
Partly cloudy
Partly cloudy
 Wind from S
Wind: S 20 km/h
Temperature: 19°C
Dew Point: 17°C
Humidity: 88%
Barometer: 1016 hPa
Clouds: Partly cloudy
Visibility: 10 km
Cloud details: Partly cloudy 244 m
2018/11/14 20:00 YSSY 142000Z 19011KT 9999 SCT008 19/17 Q1016 FM2100 18015KT 9999 BKN010 FM2000 MOD TURB BLW 5000FT
 
YSRI - Richmond (aus-Af, Australia
Distance from station: NE 257km
Updated: 15/11/2018 07:00
Clear
Clear
 Wind from calm
Wind: Calm
Temperature: 16°C
Dew Point: 16°C
Humidity: 100%
Barometer: 1016 hPa
Clouds: Clear
Visibility: 10 km
2018/11/14 20:00 YSRI 142000Z AUTO 00000KT 9999 // NCD 16/16 Q1016
YWGT - Wangaratta Arp, Australia
Distance from station: WSW 274km
Updated: 15/11/2018 07:00
Clear
Clear
 Wind from SW
Wind: SW 20 km/h
Temperature: 14°C
Dew Point: 9°C
Humidity: 72%
Barometer: 1018 hPa
Clouds: Clear
Visibility: 10 km
2018/11/14 20:00 YWGT 142000Z AUTO 22011KT 9999 // NCD 14/09 Q1018
 
YGTH - Griffith Arpt, Australia
Distance from station: WNW 308km
Updated: 15/11/2018 06:00
Clear
Clear
 Wind from SW
Wind: SW 6 km/h
Temperature: 14°C
Dew Point: 12°C
Humidity: 88%
Barometer: 1017 hPa
Clouds: Clear
Visibility: 10 km
2018/11/14 19:00 YGTH 141900Z AUTO 23003KT 9999 // NCD 14/12 Q1017